createdAt,value
2022-08-17T00:02:01.944Z,43.45
2022-08-17T00:04:12.580Z,42.92
2022-08-17T00:06:18.463Z,42.72
2022-08-17T00:08:24.316Z,42.51
2022-08-17T00:10:26.477Z,43.41
2022-08-17T00:12:43.317Z,42.71
2022-08-17T00:14:45.931Z,43.91
2022-08-17T00:16:57.045Z,42.06
2022-08-17T00:19:08.370Z,42.63
2022-08-17T00:21:11.721Z,42.16
2022-08-17T00:23:16.929Z,41.84
2022-08-17T00:25:20.031Z,42.21
2022-08-17T00:27:21.640Z,42.13
2022-08-17T00:29:23.299Z,41.82
2022-08-17T00:31:25.245Z,42.04
2022-08-17T00:33:30.066Z,42.03
2022-08-17T00:35:31.960Z,42.90
2022-08-17T00:37:33.621Z,43.61
2022-08-17T00:39:35.242Z,43.92
2022-08-17T00:41:37.701Z,43.51
2022-08-17T00:43:54.171Z,44.01
2022-08-17T00:45:55.999Z,44.59
2022-08-17T00:47:57.638Z,45.40
2022-08-17T00:49:59.365Z,45.49
2022-08-17T00:52:11.702Z,45.90
2022-08-17T00:54:15.895Z,46.36
2022-08-17T00:56:22.832Z,46.12
2022-08-17T00:58:35.837Z,46.28
2022-08-17T01:00:44.276Z,46.47
2022-08-17T01:02:48.113Z,47.91
2022-08-17T01:04:52.788Z,47.69
2022-08-17T01:06:55.145Z,47.31
2022-08-17T01:08:59.528Z,48.67
2022-08-17T01:11:02.319Z,47.46
2022-08-17T01:13:04.580Z,47.33
2022-08-17T01:15:06.658Z,46.35
2022-08-17T01:17:09.204Z,47.24
2022-08-17T01:19:17.238Z,47.86
2022-08-17T01:21:55.742Z,47.81
2022-08-17T01:23:57.617Z,48.98
2022-08-17T01:26:01.918Z,48.17
2022-08-17T01:28:04.117Z,48.98
2022-08-17T01:30:58.878Z,49.28
2022-08-17T01:32:31.514Z,48.65
2022-08-17T01:34:42.395Z,47.78
2022-08-17T01:36:47.912Z,48.66
2022-08-17T01:38:49.564Z,48.59
2022-08-17T01:40:57.513Z,48.84
2022-08-17T01:43:07.360Z,49.20
2022-08-17T01:45:14.072Z,49.42
2022-08-17T01:47:15.709Z,49.24
2022-08-17T01:49:17.379Z,48.74
2022-08-17T01:51:19.972Z,47.76
2022-08-17T01:53:36.811Z,48.22
2022-08-17T01:55:47.602Z,47.82
2022-08-17T01:57:49.185Z,47.73
2022-08-17T01:59:50.826Z,48.11
2022-08-17T02:01:53.073Z,48.82
2022-08-17T02:04:00.431Z,47.70
2022-08-17T02:06:05.365Z,46.98
2022-08-17T02:08:19.789Z,46.02
2022-08-17T02:10:21.944Z,44.87
2022-08-17T02:12:39.430Z,45.12
2022-08-17T02:14:41.504Z,45.19
2022-08-17T02:16:43.209Z,44.40
2022-08-17T02:18:46.479Z,44.16
2022-08-17T02:20:48.120Z,44.36
2022-08-17T02:22:50.195Z,43.87
2022-08-17T02:24:58.279Z,43.39
2022-08-17T02:27:03.815Z,43.76
2022-08-17T02:29:05.488Z,42.53
2022-08-17T02:31:10.426Z,42.96
2022-08-17T02:33:12.237Z,43.45
2022-08-17T02:35:14.535Z,43.94
2022-08-17T02:37:21.005Z,44.32
2022-08-17T02:39:22.631Z,43.69
2022-08-17T02:41:24.275Z,44.23
2022-08-17T02:43:27.571Z,44.39
2022-08-17T02:45:29.166Z,44.02
2022-08-17T02:47:31.292Z,43.07
2022-08-17T02:49:32.958Z,47.61
2022-08-17T02:51:35.317Z,48.52
2022-08-17T02:53:36.939Z,45.77
2022-08-17T02:55:41.060Z,43.72
2022-08-17T02:57:43.068Z,48.96
2022-08-17T02:59:48.961Z,48.98
2022-08-17T03:01:51.025Z,46.98
2022-08-17T03:03:52.848Z,47.00
2022-08-17T03:05:54.481Z,45.79
2022-08-17T03:07:57.027Z,45.37
2022-08-17T03:09:59.356Z,46.27
2022-08-17T03:12:06.779Z,45.18
2022-08-17T03:14:08.576Z,44.29
2022-08-17T03:16:10.245Z,43.66
2022-08-17T03:18:19.367Z,44.41
2022-08-17T03:20:30.733Z,44.11
2022-08-17T03:22:40.780Z,43.25
2022-08-17T03:24:42.372Z,42.79
2022-08-17T03:26:44.036Z,42.85
2022-08-17T03:28:45.675Z,43.55
2022-08-17T03:30:47.340Z,43.29
2022-08-17T03:32:51.569Z,42.94
2022-08-17T03:34:59.219Z,43.21
2022-08-17T03:37:00.802Z,43.57
2022-08-17T03:39:02.449Z,42.87
2022-08-17T03:41:06.147Z,42.93
2022-08-17T03:43:09.204Z,42.59
2022-08-17T03:45:15.600Z,44.93
2022-08-17T03:47:35.874Z,49.32
2022-08-17T03:50:03.283Z,49.77
2022-08-17T03:52:23.334Z,49.27
2022-08-17T03:54:43.698Z,49.60
2022-08-17T03:56:50.075Z,50.59
2022-08-17T03:58:51.689Z,50.14
2022-08-17T04:00:54.788Z,48.86
2022-08-17T04:02:57.351Z,47.71
2022-08-17T04:04:59.737Z,46.42
2022-08-17T04:07:01.433Z,45.70
2022-08-17T04:09:03.146Z,46.14
2022-08-17T04:11:04.865Z,45.48
2022-08-17T04:13:06.537Z,44.67
2022-08-17T04:15:08.884Z,45.64
2022-08-17T04:17:10.537Z,48.47
2022-08-17T04:19:12.272Z,51.00
2022-08-17T04:21:13.868Z,51.07
2022-08-17T04:23:18.332Z,49.10
2022-08-17T04:25:20.241Z,48.69
2022-08-17T04:27:21.814Z,48.91
2022-08-17T04:29:23.665Z,49.25
2022-08-17T04:31:26.488Z,51.60
2022-08-17T04:33:29.907Z,51.66
2022-08-17T04:35:34.626Z,48.35
2022-08-17T04:37:36.206Z,48.37
2022-08-17T04:39:37.808Z,51.35
2022-08-17T04:41:57.724Z,50.32
2022-08-17T04:43:59.671Z,53.26
2022-08-17T04:46:05.327Z,53.49
2022-08-17T04:48:07.113Z,50.66
2022-08-17T04:50:09.196Z,51.46
2022-08-17T04:52:11.260Z,48.63
2022-08-17T04:54:32.885Z,49.93
2022-08-17T04:56:35.283Z,48.19
2022-08-17T04:58:37.010Z,49.04
2022-08-17T05:00:39.231Z,49.19
2022-08-17T05:02:50.501Z,47.79
2022-08-17T05:04:52.472Z,49.40
2022-08-17T05:06:56.986Z,51.21
2022-08-17T05:08:59.884Z,50.87
2022-08-17T05:11:01.596Z,51.82
2022-08-17T05:13:08.341Z,53.71
2022-08-17T05:15:16.179Z,52.87
2022-08-17T05:17:17.752Z,52.34
2022-08-17T05:19:19.381Z,51.51
2022-08-17T05:21:22.960Z,50.36
2022-08-17T05:23:26.397Z,49.09
2022-08-17T05:25:34.474Z,51.65
2022-08-17T05:27:38.957Z,50.52
2022-08-17T05:29:42.947Z,49.78
2022-08-17T05:31:44.594Z,48.74
2022-08-17T05:33:46.458Z,50.16
2022-08-17T05:35:50.828Z,48.96
2022-08-17T05:37:53.515Z,47.83
2022-08-17T05:39:58.322Z,46.58
2022-08-17T05:42:02.643Z,47.91
2022-08-17T05:44:05.321Z,47.09
2022-08-17T05:46:25.291Z,46.61
2022-08-17T05:48:39.776Z,45.51
2022-08-17T05:51:03.658Z,45.57
2022-08-17T05:53:48.452Z,46.73
2022-08-17T05:56:30.207Z,46.50
2022-08-17T05:58:47.363Z,48.14
2022-08-17T06:01:00.612Z,47.05
2022-08-17T06:03:14.496Z,47.02
2022-08-17T06:05:54.207Z,46.40
2022-08-17T06:08:09.976Z,46.32
2022-08-17T06:10:23.047Z,49.32
2022-08-17T06:12:30.543Z,48.19
2022-08-17T06:14:36.478Z,51.31
2022-08-17T06:16:44.985Z,49.30
2022-08-17T06:19:30.757Z,49.21
2022-08-17T06:21:39.493Z,50.86
2022-08-17T06:23:49.005Z,51.43
2022-08-17T06:25:55.511Z,53.57
2022-08-17T06:28:14.708Z,53.07
2022-08-17T06:30:26.810Z,53.49
2022-08-17T06:32:29.266Z,50.09
2022-08-17T06:34:32.283Z,52.22
2022-08-17T06:37:03.849Z,51.92
2022-08-17T06:39:27.941Z,49.63
2022-08-17T06:41:38.454Z,51.20
2022-08-17T06:44:07.867Z,48.55
2022-08-17T06:46:41.443Z,48.26
2022-08-17T06:48:52.435Z,48.16
2022-08-17T06:51:17.099Z,47.10
2022-08-17T06:53:31.707Z,47.65
2022-08-17T06:55:46.559Z,47.31
2022-08-17T06:57:53.618Z,46.65
2022-08-17T07:00:07.992Z,47.51
2022-08-17T07:02:18.948Z,47.64
2022-08-17T07:04:34.354Z,47.29
2022-08-17T07:07:01.799Z,47.98
2022-08-17T07:09:14.062Z,49.54
2022-08-17T07:11:42.055Z,50.18
2022-08-17T07:13:58.005Z,48.39
2022-08-17T07:16:52.237Z,49.42
2022-08-17T07:18:56.244Z,47.92
2022-08-17T07:21:07.452Z,47.52
2022-08-17T07:23:44.336Z,47.32
2022-08-17T07:25:45.935Z,49.95
2022-08-17T07:27:51.642Z,51.54
2022-08-17T07:30:00.693Z,51.64
2022-08-17T07:32:02.912Z,50.51
2022-08-17T07:34:14.589Z,50.88
2022-08-17T07:36:34.548Z,48.85
2022-08-17T07:38:55.782Z,48.62
2022-08-17T07:41:06.280Z,49.14
2022-08-17T07:43:18.781Z,49.77
2022-08-17T07:45:44.012Z,49.25
2022-08-17T07:48:10.125Z,50.12
2022-08-17T07:50:29.355Z,50.38
2022-08-17T07:52:51.714Z,49.93
2022-08-17T07:54:54.615Z,50.56
2022-08-17T07:57:00.377Z,50.23
2022-08-17T07:59:23.110Z,49.79
2022-08-17T08:01:25.615Z,49.78
2022-08-17T08:03:46.192Z,49.56
2022-08-17T08:06:01.974Z,53.12
2022-08-17T08:08:18.509Z,50.59
2022-08-17T08:10:31.505Z,50.31
2022-08-17T08:12:42.868Z,50.49
2022-08-17T08:14:55.409Z,50.91
2022-08-17T08:17:00.466Z,49.64
2022-08-17T08:19:02.895Z,48.48
2022-08-17T08:21:12.668Z,49.46
2022-08-17T08:23:34.075Z,48.72
2022-08-17T08:25:53.241Z,50.49
2022-08-17T08:28:24.846Z,51.87
2022-08-17T08:30:28.283Z,52.18
2022-08-17T08:32:50.323Z,49.58
2022-08-17T08:35:31.066Z,50.71
2022-08-17T08:37:47.069Z,48.90
2022-08-17T08:40:02.664Z,49.46
2022-08-17T08:42:11.049Z,49.11
2022-08-17T08:45:00.973Z,49.59
2022-08-17T08:47:15.125Z,51.25
2022-08-17T08:50:02.645Z,52.40
2022-08-17T08:52:04.670Z,52.75
2022-08-17T08:54:44.376Z,51.65
2022-08-17T08:59:42.058Z,54.17
2022-08-17T09:02:01.085Z,54.11
2022-08-17T09:04:24.834Z,53.08
2022-08-17T09:07:07.736Z,52.11
2022-08-17T09:09:19.989Z,53.50
2022-08-17T09:12:01.823Z,53.71
2022-08-17T09:14:26.759Z,54.57
2022-08-17T09:16:48.531Z,55.11
2022-08-17T09:19:01.132Z,55.73
2022-08-17T09:21:21.580Z,55.16
2022-08-17T09:23:33.584Z,54.84
2022-08-17T09:26:07.817Z,53.44
2022-08-17T09:28:24.206Z,53.55
2022-08-17T09:30:29.966Z,52.68
2022-08-17T09:32:39.120Z,52.41
2022-08-17T09:34:48.524Z,53.45
2022-08-17T09:37:11.729Z,53.23
2022-08-17T09:39:24.437Z,53.00
2022-08-17T09:41:48.939Z,51.03
2022-08-17T09:43:58.660Z,52.63
2022-08-17T09:46:11.603Z,50.53
2022-08-17T09:48:19.254Z,52.20
2022-08-17T09:51:13.635Z,50.31
2022-08-17T09:53:15.589Z,51.18
2022-08-17T09:55:17.304Z,50.47
2022-08-17T09:57:37.389Z,50.91
2022-08-17T09:59:38.917Z,51.87
2022-08-17T10:02:01.203Z,51.88
2022-08-17T10:04:08.649Z,50.94
2022-08-17T10:06:21.747Z,51.63
2022-08-17T10:08:55.688Z,50.27
2022-08-17T10:11:11.630Z,52.94
2022-08-17T10:13:31.427Z,52.51
2022-08-17T10:15:46.877Z,52.95
2022-08-17T10:17:57.434Z,52.86
2022-08-17T10:20:06.976Z,54.16
2022-08-17T10:22:53.211Z,54.26
2022-08-17T10:25:49.066Z,56.24
2022-08-17T10:27:59.858Z,57.80
2022-08-17T10:30:05.083Z,56.82
2022-08-17T10:32:10.800Z,59.64
2022-08-17T10:34:46.205Z,58.89
2022-08-17T10:37:00.655Z,59.95
2022-08-17T10:39:34.323Z,56.38
2022-08-17T10:41:57.647Z,55.45
2022-08-17T10:44:37.094Z,57.98
2022-08-17T10:47:07.652Z,59.20
2022-08-17T10:49:18.337Z,55.85
2022-08-17T10:51:38.478Z,59.17
2022-08-17T10:53:49.640Z,59.44
2022-08-17T10:56:13.240Z,57.93
2022-08-17T10:58:22.119Z,56.32
2022-08-17T11:03:26.470Z,56.74
2022-08-17T11:06:06.554Z,57.13
2022-08-17T11:08:23.387Z,57.96
2022-08-17T11:10:52.762Z,55.25
2022-08-17T11:13:01.325Z,53.98
2022-08-17T11:15:32.100Z,54.94
2022-08-17T11:17:58.225Z,52.37
2022-08-17T11:20:30.379Z,50.80
2022-08-17T11:22:57.873Z,52.46
2022-08-17T11:25:17.348Z,51.48
2022-08-17T11:27:33.796Z,52.84
2022-08-17T11:29:51.985Z,53.09
2022-08-17T11:32:15.096Z,54.08
2022-08-17T11:34:23.138Z,51.16
2022-08-17T11:36:39.275Z,51.21
2022-08-17T11:38:58.787Z,50.49
2022-08-17T11:41:29.357Z,48.78
2022-08-17T11:44:03.972Z,46.95
2022-08-17T11:46:18.814Z,46.71
2022-08-17T11:49:13.872Z,46.96
2022-08-17T11:51:33.857Z,45.42
2022-08-17T11:53:38.347Z,44.04
2022-08-17T11:55:44.754Z,45.54
2022-08-17T11:58:03.638Z,45.32
2022-08-17T12:00:28.986Z,44.81
2022-08-17T12:02:38.869Z,44.54
2022-08-17T12:05:22.953Z,45.25
2022-08-17T12:07:25.054Z,44.71
2022-08-17T12:09:33.378Z,45.75
2022-08-17T12:11:55.507Z,47.18
2022-08-17T12:14:07.197Z,47.66
2022-08-17T12:16:13.505Z,46.43
2022-08-17T12:18:29.518Z,45.09
2022-08-17T12:20:40.736Z,44.43
2022-08-17T12:22:57.724Z,45.57
2022-08-17T12:25:01.926Z,44.71
2022-08-17T12:27:07.162Z,44.83
2022-08-17T12:29:38.916Z,44.54
2022-08-17T12:31:44.587Z,44.82
2022-08-17T12:33:48.290Z,45.18
2022-08-17T12:35:59.404Z,43.82
2022-08-17T12:38:03.099Z,43.53
2022-08-17T12:40:22.605Z,44.06
2022-08-17T12:42:37.503Z,43.67
2022-08-17T12:44:50.522Z,43.37
2022-08-17T12:46:54.882Z,43.06
2022-08-17T12:49:11.934Z,43.80
2022-08-17T12:51:13.629Z,43.25
2022-08-17T12:53:27.287Z,42.85
2022-08-17T12:55:33.803Z,44.31
2022-08-17T12:57:38.663Z,43.24
2022-08-17T12:59:44.086Z,42.45
2022-08-17T13:01:47.129Z,45.05
2022-08-17T13:03:52.444Z,41.66
2022-08-17T13:06:09.557Z,42.30
2022-08-17T13:08:27.909Z,42.20
2022-08-17T13:10:34.557Z,41.38
2022-08-17T13:12:36.271Z,43.79
2022-08-17T13:14:37.929Z,43.70
2022-08-17T13:16:39.833Z,42.18
2022-08-17T13:19:02.991Z,42.54
2022-08-17T13:21:06.349Z,41.50
2022-08-17T13:23:19.641Z,42.48
2022-08-17T13:25:21.562Z,42.16
2022-08-17T13:27:26.346Z,42.68
2022-08-17T13:29:53.109Z,43.03
2022-08-17T13:32:05.156Z,44.67
2022-08-17T13:34:26.720Z,43.27
2022-08-17T13:36:33.592Z,42.79
2022-08-17T13:38:51.012Z,43.00
2022-08-17T13:40:53.489Z,41.81
2022-08-17T13:42:56.439Z,41.17
2022-08-17T13:44:59.612Z,42.39
2022-08-17T13:47:02.534Z,41.55
2022-08-17T13:49:09.926Z,41.45
2022-08-17T13:51:16.928Z,40.11
2022-08-17T13:53:23.060Z,40.20
2022-08-17T13:55:26.700Z,39.39
2022-08-17T13:57:28.697Z,40.47
2022-08-17T13:59:54.830Z,41.00
2022-08-17T14:01:57.387Z,41.51
2022-08-17T14:04:01.614Z,41.78
2022-08-17T14:06:05.613Z,41.14
2022-08-17T14:08:07.360Z,41.05
2022-08-17T14:10:17.952Z,40.01
2022-08-17T14:12:25.040Z,39.07
2022-08-17T14:14:26.907Z,39.56
2022-08-17T14:16:28.525Z,41.62
2022-08-17T14:18:55.224Z,40.67
2022-08-17T14:20:53.329Z,39.94
2022-08-17T14:22:55.912Z,41.32
2022-08-17T14:24:59.388Z,39.76
2022-08-17T14:27:02.181Z,38.33
2022-08-17T14:29:04.310Z,37.99
2022-08-17T14:31:16.760Z,38.74
2022-08-17T14:33:22.555Z,38.32
2022-08-17T14:35:24.744Z,37.43
2022-08-17T14:37:28.372Z,37.43
2022-08-17T14:39:30.030Z,36.30
2022-08-17T14:41:31.823Z,36.08
2022-08-17T14:43:35.353Z,37.05
2022-08-17T14:45:36.961Z,36.76
2022-08-17T14:47:40.395Z,36.99
2022-08-17T14:49:42.365Z,36.04
2022-08-17T14:51:44.693Z,36.68
2022-08-17T14:53:47.033Z,35.87
2022-08-17T14:55:51.241Z,35.60
2022-08-17T14:57:53.158Z,35.82
2022-08-17T14:59:55.621Z,36.74
2022-08-17T15:01:58.199Z,38.34
2022-08-17T15:04:00.959Z,38.17
2022-08-17T15:06:02.886Z,36.20
2022-08-17T15:08:05.674Z,37.14
2022-08-17T15:10:08.981Z,37.12
2022-08-17T15:12:16.983Z,37.57
2022-08-17T15:14:18.611Z,38.18
2022-08-17T15:16:20.565Z,37.13
2022-08-17T15:18:22.377Z,38.06
2022-08-17T15:20:28.013Z,36.47
2022-08-17T15:22:29.811Z,36.34
2022-08-17T15:24:31.413Z,37.84
2022-08-17T15:26:33.060Z,36.74
2022-08-17T15:28:34.692Z,35.38
2022-08-17T15:30:36.342Z,35.73
2022-08-17T15:32:41.318Z,35.09
2022-08-17T15:35:00.457Z,35.11
2022-08-17T15:37:02.568Z,34.98
2022-08-17T15:39:04.439Z,35.55
2022-08-17T15:41:09.858Z,35.48
2022-08-17T15:43:20.061Z,34.71
2022-08-17T15:45:26.647Z,34.53
2022-08-17T15:47:28.257Z,35.49
2022-08-17T15:49:29.829Z,34.90
2022-08-17T15:51:34.350Z,34.65
2022-08-17T15:53:36.956Z,34.71
2022-08-17T15:55:39.687Z,35.21
2022-08-17T15:57:41.366Z,36.57
2022-08-17T15:59:44.772Z,36.34
2022-08-17T16:03:16.133Z,37.58
2022-08-17T16:04:26.510Z,34.99
2022-08-17T16:06:31.939Z,35.04
2022-08-17T16:08:35.282Z,35.60
2022-08-17T16:10:37.178Z,35.63
2022-08-17T16:12:38.997Z,35.46
2022-08-17T16:14:40.643Z,36.60
2022-08-17T16:16:42.295Z,35.51
2022-08-17T16:18:43.913Z,35.63
2022-08-17T16:20:45.579Z,34.96
2022-08-17T16:22:47.450Z,35.54
2022-08-17T16:24:57.167Z,36.52
2022-08-17T16:26:59.729Z,36.17
2022-08-17T16:29:04.670Z,36.11
2022-08-17T16:31:08.139Z,35.89
2022-08-17T16:33:12.563Z,36.27
2022-08-17T16:35:18.482Z,36.08
2022-08-17T16:37:20.302Z,36.13
2022-08-17T16:39:22.246Z,37.17
2022-08-17T16:41:42.460Z,36.12
2022-08-17T16:43:45.656Z,36.74
2022-08-17T16:45:51.811Z,37.06
2022-08-17T16:47:54.644Z,37.13
2022-08-17T16:49:56.372Z,36.45
2022-08-17T16:52:03.095Z,36.34
2022-08-17T16:54:06.129Z,35.95
2022-08-17T16:56:07.699Z,36.10
2022-08-17T16:58:09.542Z,36.50
2022-08-17T17:00:13.482Z,36.45
2022-08-17T17:02:16.982Z,36.42
2022-08-17T17:04:19.388Z,36.81
2022-08-17T17:06:30.351Z,36.15
2022-08-17T17:08:44.639Z,37.05
2022-08-17T17:10:49.680Z,36.40
2022-08-17T17:13:02.971Z,36.12
2022-08-17T17:15:06.768Z,35.52
2022-08-17T17:17:36.298Z,35.23
2022-08-17T17:19:51.464Z,35.39
2022-08-17T17:21:59.109Z,35.87
2022-08-17T17:24:06.737Z,35.78
2022-08-17T17:26:43.329Z,35.71
2022-08-17T17:28:54.024Z,36.03
2022-08-17T17:31:12.025Z,36.45
2022-08-17T17:33:36.213Z,38.23
2022-08-17T17:35:50.919Z,38.68
2022-08-17T17:37:57.315Z,36.95
2022-08-17T17:40:05.223Z,36.82
2022-08-17T17:42:11.361Z,36.70
2022-08-17T17:44:18.037Z,36.88
2022-08-17T17:46:33.317Z,38.14
2022-08-17T17:48:35.030Z,40.57
2022-08-17T17:50:44.682Z,39.07
2022-08-17T17:53:12.240Z,38.64
2022-08-17T17:55:54.441Z,38.25
2022-08-17T17:58:01.968Z,38.65
2022-08-17T18:00:15.433Z,38.33
2022-08-17T18:02:51.434Z,38.63
2022-08-17T18:05:03.480Z,37.62
2022-08-17T18:07:38.099Z,37.61
2022-08-17T18:09:49.419Z,37.68
2022-08-17T18:12:01.390Z,37.65
2022-08-17T18:14:42.199Z,40.11
2022-08-17T18:16:48.140Z,39.71
2022-08-17T18:18:52.328Z,40.18
2022-08-17T18:21:05.169Z,40.18
2022-08-17T18:23:07.085Z,40.35
2022-08-17T18:25:58.745Z,38.92
2022-08-17T18:28:00.368Z,38.59
2022-08-17T18:30:25.767Z,38.07
2022-08-17T18:32:34.441Z,37.83
2022-08-17T18:34:47.271Z,37.65
2022-08-17T18:36:49.148Z,37.23
2022-08-17T18:38:50.729Z,37.82
2022-08-17T18:41:18.528Z,37.62
2022-08-17T18:43:58.749Z,37.81
2022-08-17T18:46:17.194Z,37.40
2022-08-17T18:48:36.577Z,37.62
2022-08-17T18:50:41.459Z,38.80
2022-08-17T18:52:44.057Z,39.92
2022-08-17T18:55:11.899Z,40.51
2022-08-17T18:57:13.817Z,39.81
2022-08-17T18:59:44.844Z,39.69
2022-08-17T19:02:22.387Z,40.57
2022-08-17T19:04:43.089Z,39.92
2022-08-17T19:06:44.712Z,39.20
2022-08-17T19:08:46.307Z,38.62
2022-08-17T19:10:53.084Z,37.55
2022-08-17T19:13:12.837Z,37.53
2022-08-17T19:15:22.598Z,37.76
2022-08-17T19:17:30.713Z,38.61
2022-08-17T19:20:02.370Z,39.05
2022-08-17T19:22:16.988Z,39.74
2022-08-17T19:24:36.631Z,40.97
2022-08-17T19:27:14.082Z,41.79
2022-08-17T19:29:41.160Z,41.80
2022-08-17T19:31:44.142Z,40.41
2022-08-17T19:33:47.997Z,40.81
2022-08-17T19:35:57.517Z,40.98
2022-08-17T19:38:34.106Z,40.30
2022-08-17T19:40:59.345Z,40.18
2022-08-17T19:43:04.073Z,40.24
2022-08-17T19:45:15.934Z,39.82
2022-08-17T19:48:03.112Z,39.88
2022-08-17T19:50:12.819Z,40.59
2022-08-17T19:52:17.536Z,39.89
2022-08-17T19:54:36.675Z,39.55
2022-08-17T19:56:55.497Z,39.33
2022-08-17T19:59:09.325Z,39.22
2022-08-17T20:01:18.091Z,39.80
2022-08-17T20:03:38.108Z,40.02
2022-08-17T20:06:11.410Z,39.38
2022-08-17T20:08:20.440Z,39.34
2022-08-17T20:10:28.171Z,39.63
2022-08-17T20:12:35.491Z,40.28
2022-08-17T20:15:00.330Z,40.65
2022-08-17T20:17:03.462Z,40.89
2022-08-17T20:19:09.689Z,40.70
2022-08-17T20:21:26.813Z,41.11
2022-08-17T20:24:15.853Z,40.59
2022-08-17T20:26:58.892Z,40.43
2022-08-17T20:29:05.477Z,40.71
2022-08-17T20:31:45.530Z,40.42
2022-08-17T20:33:47.235Z,40.25
2022-08-17T20:36:11.508Z,40.29
2022-08-17T20:38:36.305Z,39.88
2022-08-17T20:41:00.688Z,40.34
2022-08-17T20:43:33.281Z,39.88
2022-08-17T20:45:40.742Z,39.81
2022-08-17T20:48:07.461Z,39.92
2022-08-17T20:50:25.397Z,40.35
2022-08-17T20:52:35.929Z,41.03
2022-08-17T20:54:55.909Z,41.77
2022-08-17T20:57:00.977Z,47.58
2022-08-17T20:59:02.621Z,49.00
2022-08-17T21:01:24.270Z,45.27
2022-08-17T21:03:49.153Z,46.04
2022-08-17T21:05:58.842Z,46.11
2022-08-17T21:08:16.553Z,47.73
2022-08-17T21:10:24.114Z,45.75
2022-08-17T21:13:04.517Z,44.80
2022-08-17T21:15:28.497Z,44.32
2022-08-17T21:17:38.111Z,44.02
2022-08-17T21:20:10.981Z,44.05
2022-08-17T21:22:37.476Z,44.42
2022-08-17T21:24:50.777Z,43.66
2022-08-17T21:27:20.536Z,44.37
2022-08-17T21:29:30.970Z,48.63
2022-08-17T21:31:46.016Z,46.41
2022-08-17T21:34:22.990Z,46.68
2022-08-17T21:36:25.981Z,46.54
2022-08-17T21:38:37.132Z,45.94
2022-08-17T21:40:45.243Z,46.89
2022-08-17T21:42:55.160Z,45.18
2022-08-17T21:45:01.392Z,45.52
2022-08-17T21:47:24.737Z,46.12
2022-08-17T21:49:28.659Z,45.80
2022-08-17T21:51:32.517Z,46.09
2022-08-17T21:53:48.195Z,45.92
2022-08-17T21:55:52.294Z,46.17
2022-08-17T21:58:13.819Z,45.93
2022-08-17T22:00:25.797Z,48.03
2022-08-17T22:02:34.004Z,47.40
2022-08-17T22:04:38.886Z,46.48
2022-08-17T22:06:56.889Z,46.97
2022-08-17T22:09:30.104Z,47.29
2022-08-17T22:11:51.329Z,45.97
2022-08-17T22:14:05.300Z,48.83
2022-08-17T22:16:28.455Z,48.80
2022-08-17T22:18:31.193Z,48.83
2022-08-17T22:20:33.418Z,50.74
2022-08-17T22:23:04.077Z,51.09
2022-08-17T22:25:19.643Z,49.11
2022-08-17T22:27:21.724Z,51.41
2022-08-17T22:29:56.866Z,51.81
2022-08-17T22:31:59.350Z,52.49
2022-08-17T22:34:04.122Z,53.63
2022-08-17T22:36:29.833Z,50.67
2022-08-17T22:38:32.753Z,53.80
2022-08-17T22:40:34.674Z,52.18
2022-08-17T22:42:48.382Z,53.27
2022-08-17T22:44:51.810Z,53.42
2022-08-17T22:46:59.019Z,53.08
2022-08-17T22:49:00.850Z,52.13
2022-08-17T22:51:13.393Z,50.65
2022-08-17T22:53:38.090Z,49.50
2022-08-17T22:56:08.856Z,49.46
2022-08-17T22:58:34.977Z,50.68
2022-08-17T23:00:42.122Z,51.23
2022-08-17T23:03:10.539Z,50.07
2022-08-17T23:05:16.823Z,51.10
2022-08-17T23:07:20.160Z,48.91
2022-08-17T23:09:22.105Z,48.39
2022-08-17T23:11:49.108Z,47.65
2022-08-17T23:13:54.971Z,47.77
2022-08-17T23:15:56.575Z,47.23
2022-08-17T23:17:59.466Z,48.40
2022-08-17T23:20:01.459Z,49.20
2022-08-17T23:22:08.027Z,48.50
2022-08-17T23:24:09.920Z,47.35
2022-08-17T23:26:11.736Z,48.30
2022-08-17T23:28:13.412Z,47.18
2022-08-17T23:30:15.119Z,47.36
2022-08-17T23:32:18.512Z,50.52
2022-08-17T23:34:20.265Z,51.93
2022-08-17T23:36:22.484Z,52.65
2022-08-17T23:38:26.984Z,51.19
2022-08-17T23:40:29.936Z,52.70
2022-08-17T23:42:32.215Z,52.59
2022-08-17T23:44:35.855Z,52.04
2022-08-17T23:46:37.430Z,50.27
2022-08-17T23:48:41.144Z,51.86
2022-08-17T23:50:42.773Z,53.29
2022-08-17T23:52:46.645Z,51.67
2022-08-17T23:54:49.920Z,53.38
2022-08-17T23:56:51.495Z,50.70
2022-08-17T23:58:55.554Z,52.39
